Time;durP1;ratioP1;P1;durP2;ratioP2;P2;SDS_P1;SDS_P2;PMS_P1;PMS_P2;Temp;Humidity;BMP_temperature;BMP_pressure;BME280_temperature;BME280_humidity;BME280_pressure;Samples;Min_cycle;Max_cycle;Signal;HPM_P1;HPM_P2
2024/03/31 00:02:18;;;;;;;20.52;12.73;;;;;;;-146.27;88.64;43767.53;5070336;28;20028;-72
2024/03/31 00:04:48;;;;;;;22.42;13.50;;;;;;;-146.27;89.09;43735.69;5092496;28;20028;-78
2024/03/31 00:07:13;;;;;;;19.45;13.35;;;;;;;-146.27;88.59;43771.50;5089569;28;20024;-77
2024/03/31 00:09:39;;;;;;;18.73;13.18;;;;;;;-146.27;89.56;43727.75;5104596;28;20514;-78
2024/03/31 00:12:04;;;;;;;24.40;13.50;;;;;;;-146.27;89.10;43741.66;5104524;28;20106;-76
2024/03/31 00:14:32;;;;;;;21.75;13.60;;;;;;;-146.27;89.31;43745.66;5104364;28;20019;-77
2024/03/31 00:16:58;;;;;;;26.50;13.95;;;;;;;-146.27;89.64;43713.81;5089639;28;20512;-78
2024/03/31 00:19:23;;;;;;;19.98;13.65;;;;;;;-146.27;89.83;43642.19;5086025;28;20024;-76
2024/03/31 00:21:49;;;;;;;32.17;14.80;;;;;;;-146.27;89.77;43674.03;5083436;28;20035;-77
2024/03/31 00:24:15;;;;;;;58.15;13.93;;;;;;;-146.27;89.90;43654.13;5100826;28;20024;-77
2024/03/31 00:26:40;;;;;;;55.58;13.48;;;;;;;-146.27;89.56;43664.09;5097191;28;20048;-77
2024/03/31 00:29:06;;;;;;;73.88;14.07;;;;;;;-146.27;90.14;43626.28;5083786;28;20032;-77
2024/03/31 00:31:31;;;;;;;80.70;15.07;;;;;;;-146.27;90.44;43626.28;5076203;28;20533;-78
2024/03/31 00:33:57;;;;;;;290.10;18.17;;;;;;;-146.27;89.99;43618.31;5088478;28;20031;-77
2024/03/31 00:36:22;;;;;;;126.30;14.95;;;;;;;-146.27;90.26;43592.47;5089000;28;20058;-77
2024/03/31 00:38:48;;;;;;;76.72;13.23;;;;;;;-146.27;90.61;43598.44;5090168;28;20028;-76
2024/03/31 00:41:13;;;;;;;38.17;12.07;;;;;;;-146.27;90.30;43592.47;5093543;28;20103;-78
2024/03/31 00:43:39;;;;;;;199.88;13.27;;;;;;;-146.27;89.79;43612.34;5102293;28;20019;-77
2024/03/31 00:46:06;;;;;;;91.40;11.95;;;;;;;-146.27;89.86;43598.44;5091918;28;20434;-77
2024/03/31 00:48:31;;;;;;;58.83;11.30;;;;;;;-146.27;89.90;43654.13;5083212;28;20020;-78
2024/03/31 00:50:56;;;;;;;163.70;13.07;;;;;;;-146.27;89.84;43662.09;5090636;28;20464;-77
2024/03/31 00:53:22;;;;;;;100.45;10.93;;;;;;;-146.27;89.72;43646.19;5090326;28;20081;-77
2024/03/31 00:55:47;;;;;;;167.43;13.43;;;;;;;-146.27;89.88;43666.06;5095128;28;20035;-77
2024/03/31 00:58:13;;;;;;;146.82;13.63;;;;;;;-146.27;90.12;43640.22;5090305;28;20034;-77
2024/03/31 01:00:39;;;;;;;41.15;11.05;;;;;;;-146.27;90.29;43628.28;5087288;28;20039;-77
2024/03/31 01:03:04;;;;;;;151.73;12.60;;;;;;;-146.27;90.02;43701.88;5088826;28;20105;-77
2024/03/31 01:05:30;;;;;;;185.90;14.07;;;;;;;-146.27;90.03;43697.91;5090173;28;20024;-77
2024/03/31 01:07:57;;;;;;;202.20;13.93;;;;;;;-146.27;89.76;43727.75;5089940;28;20030;-77
2024/03/31 01:10:22;;;;;;;32.45;12.20;;;;;;;-146.27;90.64;43658.13;5089047;28;20051;-78
2024/03/31 01:12:48;;;;;;;106.30;11.77;;;;;;;-146.27;90.43;43693.91;5088081;28;20555;-77
2024/03/31 01:15:14;;;;;;;96.63;11.52;;;;;;;-146.27;90.18;43693.91;5089250;28;20020;-75
2024/03/31 01:17:39;;;;;;;192.15;12.73;;;;;;;-146.27;89.81;43725.75;5088311;28;20098;-77
2024/03/31 01:20:05;;;;;;;168.13;12.02;;;;;;;-146.27;90.23;43763.56;5089913;28;20464;-76
2024/03/31 01:22:32;;;;;;;92.88;11.70;;;;;;;-146.27;90.68;43705.84;5084162;28;20073;-76
2024/03/31 01:24:58;;;;;;;97.90;12.00;;;;;;;-146.27;90.46;43691.94;5089982;28;20047;-78
2024/03/31 01:27:24;;;;;;;84.07;11.45;;;;;;;-146.27;90.17;43670.06;5089051;28;20036;-76
2024/03/31 01:29:50;;;;;;;44.40;11.50;;;;;;;-146.27;90.50;43638.22;5090098;28;20032;-76
2024/03/31 01:32:15;;;;;;;103.88;13.00;;;;;;;-146.27;90.61;43636.22;5084910;28;20024;-77
2024/03/31 01:34:44;;;;;;;93.30;13.27;;;;;;;-146.27;90.79;43608.38;5087181;28;20435;-77
2024/03/31 01:37:09;;;;;;;71.85;13.65;;;;;;;-146.27;90.75;43608.38;5075486;28;20107;-78
2024/03/31 01:39:35;;;;;;;109.35;15.27;;;;;;;-146.27;90.67;43574.56;5087120;28;20103;-78
2024/03/31 01:42:00;;;;;;;87.38;14.50;;;;;;;-146.27;90.83;43592.47;5093562;28;20054;-75
2024/03/31 01:44:25;;;;;;;56.42;14.60;;;;;;;-146.27;91.10;43570.59;5094388;28;20069;-77
2024/03/31 01:46:51;;;;;;;54.17;14.75;;;;;;;-146.27;91.10;43548.69;5092250;28;20038;-76
2024/03/31 01:49:16;;;;;;;21.23;14.65;;;;;;;-146.27;90.97;43506.94;5093090;28;20051;-77
2024/03/31 01:51:42;;;;;;;43.10;15.98;;;;;;;-146.27;90.92;43516.88;5091622;28;20395;-77
2024/03/31 01:54:07;;;;;;;56.60;16.50;;;;;;;-146.27;90.93;43487.03;5091748;28;20024;-78
2024/03/31 01:56:32;;;;;;;58.22;15.70;;;;;;;-146.27;90.88;43498.97;5081196;28;20050;-76
2024/03/31 01:58:58;;;;;;;26.92;14.90;;;;;;;-146.27;91.38;43487.03;5080749;28;20023;-77
2024/03/31 02:01:24;;;;;;;26.10;15.15;;;;;;;-146.27;91.23;43475.09;5074163;28;20031;-76
2024/03/31 02:03:50;;;;;;;26.38;16.02;;;;;;;-146.27;91.00;43465.16;5093040;28;20376;-72
2024/03/31 02:06:15;;;;;;;28.48;15.23;;;;;;;-146.27;91.24;43459.19;5102395;28;20438;-72
2024/03/31 02:08:40;;;;;;;27.17;16.35;;;;;;;-146.27;91.47;43431.34;5095193;28;20248;-72
2024/03/31 02:11:06;;;;;;;32.83;17.63;;;;;;;-146.27;91.38;43389.56;5067174;28;20027;-73
2024/03/31 02:13:31;;;;;;;26.48;15.30;;;;;;;-146.27;91.42;43361.72;5092534;28;20102;-71
2024/03/31 02:15:56;;;;;;;25.55;15.52;;;;;;;-146.27;90.92;43353.75;5084380;28;20100;-74
2024/03/31 02:18:22;;;;;;;26.65;15.73;;;;;;;-146.27;91.07;43317.94;5082331;28;20050;-73
2024/03/31 02:20:48;;;;;;;30.02;16.35;;;;;;;-146.27;91.10;43304.03;5065444;28;20031;-73
2024/03/31 02:23:13;;;;;;;32.83;15.07;;;;;;;-146.27;91.29;43308.00;5094637;28;20028;-73
2024/03/31 02:25:39;;;;;;;34.50;14.77;;;;;;;-146.27;91.50;43315.97;5074938;28;20690;-73
2024/03/31 02:28:04;;;;;;;28.38;15.73;;;;;;;-146.27;91.17;43292.09;5089884;28;20051;-73
2024/03/31 02:30:29;;;;;;;25.75;15.15;;;;;;;-146.27;91.38;43256.28;5092269;28;20032;-73
2024/03/31 02:32:55;;;;;;;30.50;15.63;;;;;;;-146.27;91.32;43252.31;5092303;28;20448;-72
2024/03/31 02:35:20;;;;;;;25.08;15.10;;;;;;;-146.27;91.08;43248.34;5093136;28;20426;-73
2024/03/31 02:37:47;;;;;;;25.85;15.05;;;;;;;-146.27;91.08;43254.31;5078371;28;20032;-72
2024/03/31 02:40:13;;;;;;;28.60;15.30;;;;;;;-146.27;91.27;43276.19;5092802;28;20032;-74
2024/03/31 02:42:40;;;;;;;29.15;15.27;;;;;;;-146.27;90.99;43222.47;5076411;28;20054;-72
2024/03/31 02:45:05;;;;;;;30.85;15.73;;;;;;;-146.27;90.76;43204.56;5072744;28;20035;-72
2024/03/31 02:47:30;;;;;;;27.67;15.50;;;;;;;-146.27;90.96;43248.34;5090088;28;20107;-73
2024/03/31 02:49:56;;;;;;;26.08;15.95;;;;;;;-146.27;91.09;43200.59;5074657;28;20059;-71
2024/03/31 02:52:21;;;;;;;30.60;16.00;;;;;;;-146.27;90.49;43204.56;5092297;28;20028;-74
2024/03/31 02:54:46;;;;;;;26.17;15.52;;;;;;;-146.27;90.93;43224.47;5065266;28;20040;-74
2024/03/31 02:57:12;;;;;;;26.15;15.20;;;;;;;-146.27;90.88;43208.56;5092490;28;20069;-71
2024/03/31 02:59:38;;;;;;;27.30;16.55;;;;;;;-146.27;90.67;43178.72;5092410;28;20031;-74
2024/03/31 03:02:03;;;;;;;25.13;14.77;;;;;;;-146.27;91.26;43158.81;5092189;28;20038;-72
2024/03/31 03:04:29;;;;;;;27.00;16.05;;;;;;;-146.27;90.65;43162.78;5093376;28;20027;-73
2024/03/31 03:06:54;;;;;;;30.00;16.30;;;;;;;-146.27;90.55;43196.63;5093355;28;20032;-73
2024/03/31 03:09:20;;;;;;;26.27;15.32;;;;;;;-146.27;90.50;43172.75;5082095;28;20028;-72
2024/03/31 03:11:46;;;;;;;25.85;15.35;;;;;;;-146.27;91.12;43180.69;5073820;28;20495;-72
2024/03/31 03:14:11;;;;;;;29.08;16.98;;;;;;;-146.27;90.90;43208.56;5094961;28;20557;-72
2024/03/31 03:16:37;;;;;;;28.05;15.45;;;;;;;-146.27;90.89;43166.78;5092500;28;20032;-74
2024/03/31 03:19:03;;;;;;;31.02;16.42;;;;;;;-146.27;90.76;43144.91;5092146;28;20008;-72
2024/03/31 03:21:28;;;;;;;26.83;13.77;;;;;;;-146.27;90.88;43188.66;5092121;28;20452;-73
2024/03/31 03:23:53;;;;;;;26.23;14.15;;;;;;;-146.27;90.63;43168.75;5091803;28;20059;-73
2024/03/31 03:26:19;;;;;;;30.33;15.48;;;;;;;-146.27;90.88;43180.69;5112368;28;20055;-73
2024/03/31 03:28:46;;;;;;;22.85;13.52;;;;;;;-146.27;90.89;43160.81;5080832;28;20060;-74
2024/03/31 03:31:11;;;;;;;29.88;14.65;;;;;;;-146.27;90.93;43188.66;5079583;28;20074;-73
2024/03/31 03:33:37;;;;;;;24.48;13.68;;;;;;;-146.27;91.13;43184.69;5091469;28;20246;-73
2024/03/31 03:36:04;;;;;;;23.98;12.80;;;;;;;-146.27;91.07;43144.91;5088130;28;20370;-73
2024/03/31 03:38:29;;;;;;;24.98;13.88;;;;;;;-146.27;90.74;43148.88;5071458;28;20495;-73
2024/03/31 03:40:54;;;;;;;25.35;13.35;;;;;;;-146.27;90.65;43132.97;5084729;28;20020;-73
2024/03/31 03:43:20;;;;;;;23.17;13.82;;;;;;;-146.27;90.58;43146.88;5082255;28;20032;-73
2024/03/31 03:45:46;;;;;;;26.48;13.15;;;;;;;-146.27;90.76;43156.84;5078104;28;20085;-73
2024/03/31 03:48:11;;;;;;;24.85;12.70;;;;;;;-146.27;90.72;43144.91;5072768;28;20039;-71
2024/03/31 03:50:37;;;;;;;21.85;12.07;;;;;;;-146.27;90.66;43150.88;5087826;28;20036;-73
2024/03/31 03:53:04;;;;;;;24.15;13.13;;;;;;;-146.27;90.74;43166.78;5083290;28;20028;-72
2024/03/31 03:55:29;;;;;;;21.23;12.48;;;;;;;-146.27;90.49;43156.84;5090568;28;20036;-73
2024/03/31 03:57:54;;;;;;;23.00;12.45;;;;;;;-146.27;90.67;43164.78;5090303;28;20532;-74
2024/03/31 04:00:20;;;;;;;21.40;12.18;;;;;;;-146.27;90.37;43125.00;5085249;28;20025;-73
2024/03/31 04:02:45;;;;;;;23.33;12.65;;;;;;;-146.27;90.75;43160.81;5090441;28;20024;-72
2024/03/31 04:05:10;;;;;;;23.65;12.10;;;;;;;-146.27;90.85;43152.84;5091140;28;20027;-73
2024/03/31 04:07:36;;;;;;;20.10;10.88;;;;;;;-146.27;90.37;43121.03;5094865;28;20225;-72
2024/03/31 04:10:02;;;;;;;20.33;11.35;;;;;;;-146.27;90.43;43099.16;5101665;28;20030;-73
2024/03/31 04:12:27;;;;;;;18.08;10.35;;;;;;;-146.27;90.10;43148.88;5092899;28;20603;-74
2024/03/31 04:14:52;;;;;;;17.40;10.07;;;;;;;-146.27;90.34;43152.84;5094707;28;20098;-73
2024/03/31 04:17:18;;;;;;;16.50;9.45;;;;;;;-146.27;90.03;43123.00;5081432;28;20399;-73
2024/03/31 04:19:43;;;;;;;16.58;10.05;;;;;;;-146.27;90.10;43121.03;5110977;28;20102;-73
2024/03/31 04:22:09;;;;;;;14.98;8.93;;;;;;;-146.27;90.37;43154.84;5095478;28;20020;-73
2024/03/31 04:24:34;;;;;;;17.65;9.25;;;;;;;-146.27;90.18;43168.75;5069722;28;20024;-74
2024/03/31 04:27:00;;;;;;;15.93;9.88;;;;;;;-146.27;90.02;43172.75;5100889;28;20528;-73
2024/03/31 04:29:25;;;;;;;15.88;8.70;;;;;;;-146.27;89.76;43176.72;5079348;28;20404;-73
2024/03/31 04:31:57;;;;;;;17.30;9.13;;;;;;;-146.27;89.51;43190.66;5086700;28;20145;-73
2024/03/31 04:34:27;;;;;;;14.35;8.35;;;;;;;-146.27;89.76;43214.50;5087886;28;20024;-73
2024/03/31 04:36:54;;;;;;;16.25;8.95;;;;;;;-146.27;89.75;43196.63;5089542;28;20052;-73
2024/03/31 04:39:19;;;;;;;13.90;8.23;;;;;;;-146.27;90.38;43228.44;5090105;28;20046;-73
2024/03/31 04:41:44;;;;;;;15.07;8.20;;;;;;;-146.27;90.40;43244.34;5089726;28;20024;-73
2024/03/31 04:44:11;;;;;;;15.80;8.70;;;;;;;-146.27;90.10;43182.69;5090525;28;20145;-73
2024/03/31 04:46:36;;;;;;;13.32;8.10;;;;;;;-146.27;90.29;43192.63;5077876;28;20028;-72
2024/03/31 04:49:04;;;;;;;15.65;8.88;;;;;;;-146.27;90.34;43240.38;5072299;28;20046;-72
2024/03/31 04:51:30;;;;;;;15.68;9.13;;;;;;;-146.27;90.13;43216.50;5084632;28;20030;-74
2024/03/31 04:53:55;;;;;;;14.10;8.02;;;;;;;-146.27;90.26;43208.56;5089422;28;20020;-73
2024/03/31 04:56:21;;;;;;;14.43;8.32;;;;;;;-146.27;90.37;43200.59;5079535;28;20095;-73
2024/03/31 04:58:47;;;;;;;16.20;8.02;;;;;;;-146.27;90.28;43212.53;5069926;28;20029;-73
2024/03/31 05:01:13;;;;;;;13.13;7.70;;;;;;;-146.27;90.59;43152.84;5073981;28;20029;-74
2024/03/31 05:03:39;;;;;;;15.13;8.25;;;;;;;-146.27;90.50;43198.59;5089311;28;20491;-73
2024/03/31 05:06:04;;;;;;;18.98;8.40;;;;;;;-146.27;90.23;43200.59;5088498;28;20034;-72
2024/03/31 05:08:30;;;;;;;18.92;8.38;;;;;;;-146.27;90.02;43188.66;5089028;28;20028;-72
2024/03/31 05:10:56;;;;;;;15.07;8.85;;;;;;;-146.27;89.80;43216.50;5086002;28;20028;-73
2024/03/31 05:13:25;;;;;;;13.85;8.27;;;;;;;-146.27;90.48;43148.88;5058836;28;20019;-72
2024/03/31 05:16:01;;;;;;;11.68;7.15;;;;;;;-146.27;89.99;43164.78;5089925;28;20033;-72
2024/03/31 05:18:26;;;;;;;12.65;7.65;;;;;;;-146.27;90.01;43105.13;5089168;28;20384;-72
2024/03/31 05:21:00;;;;;;;12.82;7.85;;;;;;;-146.27;90.36;43127.00;5090285;28;20024;-73
2024/03/31 05:23:25;;;;;;;;;;;;;;;-146.27;90.21;43107.09;5090506;28;20035;-73
2024/03/31 05:25:51;;;;;;;13.10;7.80;;;;;;;-146.27;90.04;43125.00;5072832;28;19959;-72
2024/03/31 05:28:18;;;;;;;12.48;8.23;;;;;;;-146.27;90.06;43132.97;5099069;28;20390;-72
2024/03/31 05:30:47;;;;;;;13.00;8.13;;;;;;;-146.27;90.02;43140.91;5090558;28;20031;-74
2024/03/31 05:33:13;;;;;;;14.95;8.32;;;;;;;-146.27;89.94;43140.91;5087345;28;20396;-73
2024/03/31 05:35:42;;;;;;;18.88;8.85;;;;;;;-146.27;90.34;43166.78;5078158;28;20168;-72
2024/03/31 05:38:09;;;;;;;16.38;7.72;;;;;;;-146.27;90.68;43144.91;5078570;28;20059;-75
2024/03/31 05:40:53;;;;;;;14.40;9.13;;;;;;;-146.27;90.87;43111.09;5077037;28;20031;-74
2024/03/31 05:43:18;;;;;;;13.00;7.57;;;;;;;-146.27;90.37;43136.94;5089218;28;20123;-75
2024/03/31 05:45:43;;;;;;;17.00;8.35;;;;;;;-146.27;90.82;43134.94;5088152;28;20098;-74
2024/03/31 05:48:11;;;;;;;12.85;8.98;;;;;;;-146.27;90.61;43136.94;5088950;28;20036;-74
2024/03/31 05:50:37;;;;;;;17.90;9.52;;;;;;;-146.27;91.21;43121.03;5071053;28;20024;-73
2024/03/31 05:53:03;;;;;;;16.27;8.73;;;;;;;-146.27;91.48;43148.88;5090339;28;20036;-74
2024/03/31 05:55:28;;;;;;;14.60;8.02;;;;;;;-146.27;90.95;43125.00;5079106;28;20492;-74
2024/03/31 05:57:54;;;;;;;14.75;9.07;;;;;;;-146.27;91.08;43127.00;5087464;28;20020;-73
2024/03/31 06:00:20;;;;;;;14.60;8.60;;;;;;;-146.27;90.70;43172.75;5074070;28;20028;-74
2024/03/31 06:02:45;;;;;;;13.93;8.93;;;;;;;-146.27;90.21;43127.00;5074154;28;20055;-72
2024/03/31 06:05:11;;;;;;;14.85;8.55;;;;;;;-146.27;90.80;43130.97;5089737;28;20062;-72
2024/03/31 06:07:36;;;;;;;15.32;8.48;;;;;;;-146.27;90.48;43180.69;5098271;28;20012;-72
2024/03/31 06:10:02;;;;;;;19.25;9.18;;;;;;;-146.27;91.04;43212.53;5106535;28;20023;-74
2024/03/31 06:12:27;;;;;;;15.10;8.73;;;;;;;-146.27;90.64;43176.72;5089544;28;20027;-75
2024/03/31 06:14:53;;;;;;;16.83;9.57;;;;;;;-146.27;90.25;43172.75;5088362;28;20024;-77
2024/03/31 06:17:21;;;;;;;19.98;9.88;;;;;;;-146.27;91.23;43216.50;5090674;28;20370;-75
2024/03/31 06:19:47;;;;;;;19.45;10.00;;;;;;;-146.27;91.20;43212.53;5101165;28;20016;-76
2024/03/31 06:22:12;;;;;;;16.45;9.35;;;;;;;-146.27;91.11;43218.50;5089768;28;20050;-77
2024/03/31 06:24:38;;;;;;;18.63;9.82;;;;;;;-146.27;90.69;43240.38;5094768;28;20024;-76
2024/03/31 06:27:03;;;;;;;17.65;9.20;;;;;;;-146.27;90.70;43288.13;5091059;28;20055;-76
2024/03/31 06:29:29;;;;;;;17.00;9.80;;;;;;;-146.27;90.88;43284.13;5091298;28;20103;-76
2024/03/31 06:31:54;;;;;;;15.60;9.50;;;;;;;-146.27;90.99;43252.31;5090730;28;20536;-76
2024/03/31 06:34:19;;;;;;;16.83;9.35;;;;;;;-146.27;91.11;43254.31;5093840;28;20028;-75
2024/03/31 06:36:45;;;;;;;15.30;9.23;;;;;;;-146.27;91.23;43304.03;5092681;28;20019;-76
2024/03/31 06:39:11;;;;;;;18.42;9.35;;;;;;;-146.27;90.75;43272.19;5086230;28;20438;-77
2024/03/31 06:41:37;;;;;;;17.83;9.30;;;;;;;-146.27;90.64;43268.22;5093176;28;20031;-77
2024/03/31 06:44:03;;;;;;;19.95;9.80;;;;;;;-146.27;90.43;43300.06;5088848;28;20032;-77
2024/03/31 06:46:28;;;;;;;17.65;9.60;;;;;;;-146.27;90.30;43292.09;5077926;28;20024;-77
2024/03/31 06:48:53;;;;;;;16.98;9.15;;;;;;;-146.27;90.85;43296.06;5089093;28;20020;-78
2024/03/31 06:51:19;;;;;;;18.58;8.73;;;;;;;-146.27;90.84;43300.06;5070133;28;20056;-78
2024/03/31 06:53:45;;;;;;;16.52;9.00;;;;;;;-146.27;91.10;43323.91;5086436;28;20020;-79
2024/03/31 06:56:10;;;;;;;19.90;10.57;;;;;;;-146.27;91.35;43327.91;5091877;28;20036;-77
2024/03/31 06:58:36;;;;;;;20.88;10.60;;;;;;;-146.27;91.65;43371.66;5092398;28;20016;-77
2024/03/31 07:01:01;;;;;;;21.08;10.57;;;;;;;-146.27;91.03;43343.81;5089451;28;20020;-78
2024/03/31 07:03:27;;;;;;;20.23;10.23;;;;;;;-146.27;91.18;43367.69;5095471;28;20027;-78
2024/03/31 07:05:52;;;;;;;20.15;10.60;;;;;;;-146.27;91.07;43403.50;5092051;28;20081;-79
2024/03/31 07:08:18;;;;;;;18.25;10.40;;;;;;;-146.27;90.69;43443.28;5073881;28;20053;-78
2024/03/31 07:10:43;;;;;;;19.75;10.38;;;;;;;-146.27;91.31;43491.00;5091977;28;20038;-78
2024/03/31 07:13:08;;;;;;;20.48;10.75;;;;;;;-146.27;91.99;43618.31;5091631;28;20027;-77
2024/03/31 07:15:34;;;;;;;18.02;10.07;;;;;;;-146.27;91.91;43544.72;5097031;28;20086;-78
2024/03/31 07:18:10;;;;;;;22.48;11.02;;;;;;;-146.27;91.78;43586.50;5089349;28;20028;-76
2024/03/31 07:20:36;;;;;;;19.52;11.38;;;;;;;-146.27;91.55;43606.38;5090012;28;20032;-78
2024/03/31 07:23:03;;;;;;;21.10;10.90;;;;;;;-146.27;91.47;43616.34;5073900;28;20479;-77
2024/03/31 07:25:29;;;;;;;18.67;10.20;;;;;;;-146.27;91.39;43582.53;5090219;28;20036;-77
2024/03/31 07:27:55;;;;;;;21.83;11.82;;;;;;;-146.27;91.50;43594.47;5076900;28;20101;-77
2024/03/31 07:30:21;;;;;;;18.25;10.65;;;;;;;-146.27;91.34;43554.66;5102554;28;20036;-76
2024/03/31 07:32:46;;;;;;;18.13;10.13;;;;;;;-146.27;91.81;43554.66;5092994;28;20056;-76
2024/03/31 07:35:12;;;;;;;24.38;10.82;;;;;;;-146.27;91.50;43560.63;5104429;28;20096;-77
2024/03/31 07:37:37;;;;;;;18.85;10.57;;;;;;;-146.27;91.44;43550.69;5107237;28;20066;-76
2024/03/31 07:40:03;;;;;;;18.23;10.07;;;;;;;-146.27;91.12;43558.66;5099552;28;20058;-77
2024/03/31 07:42:28;;;;;;;16.63;9.75;;;;;;;-146.27;91.47;43606.38;5091089;28;20115;-77
2024/03/31 07:44:54;;;;;;;20.52;11.13;;;;;;;-146.27;91.69;43600.44;5090843;28;20020;-78
2024/03/31 07:47:19;;;;;;;19.63;11.05;;;;;;;-146.27;92.15;43642.19;5091548;28;20036;-76
2024/03/31 07:49:45;;;;;;;16.88;9.95;;;;;;;-146.27;93.20;43628.28;5073634;28;20020;-76
2024/03/31 07:52:10;;;;;;;19.67;10.63;;;;;;;-146.27;92.73;43596.44;5102237;28;20512;-76
2024/03/31 07:54:35;;;;;;;19.25;10.80;;;;;;;-146.27;92.28;43560.63;5105143;28;20035;-75
2024/03/31 07:57:01;;;;;;;20.85;10.60;;;;;;;-146.27;92.43;43582.53;5112112;28;20036;-76
2024/03/31 07:59:26;;;;;;;19.80;10.18;;;;;;;-146.27;92.01;43532.78;5079819;28;20025;-76
2024/03/31 08:01:53;;;;;;;23.10;12.05;;;;;;;-146.27;91.89;43562.63;5071239;28;20073;-77
2024/03/31 08:04:19;;;;;;;22.85;10.85;;;;;;;-146.27;92.11;43548.69;5077660;28;20043;-73
2024/03/31 08:06:44;;;;;;;23.15;11.75;;;;;;;-146.27;92.20;43580.53;5091204;28;20024;-74
2024/03/31 08:09:10;;;;;;;24.95;12.10;;;;;;;-146.27;92.25;43483.06;5073068;28;20399;-74
2024/03/31 08:11:35;;;;;;;22.05;12.10;;;;;;;-146.27;92.02;43435.31;5091413;28;20380;-74
2024/03/31 08:14:01;;;;;;;21.05;11.80;;;;;;;-146.27;92.18;43493.00;5090880;28;20019;-74
2024/03/31 08:16:26;;;;;;;28.02;13.07;;;;;;;-146.27;92.55;43506.94;5068903;28;20097;-73
2024/03/31 08:18:52;;;;;;;23.77;11.63;;;;;;;-146.27;92.09;43485.03;5101828;28;20120;-73
2024/03/31 08:21:17;;;;;;;20.02;12.00;;;;;;;-146.27;91.95;43431.34;5091260;28;20099;-74
2024/03/31 08:23:43;;;;;;;23.27;12.88;;;;;;;-146.27;92.47;43391.56;5090927;28;20394;-72
2024/03/31 08:26:08;;;;;;;25.83;14.05;;;;;;;-146.27;91.71;43335.84;5090721;28;20030;-74
2024/03/31 08:28:33;;;;;;;24.10;13.38;;;;;;;-146.27;91.19;43300.06;5089527;28;20031;-74
2024/03/31 08:30:59;;;;;;;21.85;13.38;;;;;;;-146.27;91.62;43375.63;5090697;28;20055;-74
2024/03/31 08:33:24;;;;;;;22.98;14.00;;;;;;;-146.27;91.17;43288.13;5090964;28;20032;-73
2024/03/31 08:35:51;;;;;;;25.35;14.70;;;;;;;-146.27;90.83;43284.13;5089343;28;20031;-73
2024/03/31 08:38:16;;;;;;;22.83;13.75;;;;;;;-146.27;90.53;43256.28;5090542;28;20020;-73
2024/03/31 08:40:45;;;;;;;21.77;13.50;;;;;;;-146.27;90.29;43337.84;5090853;28;20039;-73
2024/03/31 08:43:16;;;;;;;22.73;14.80;;;;;;;-146.27;90.53;43302.03;5090455;28;20487;-73
2024/03/31 08:45:42;;;;;;;21.35;14.13;;;;;;;-146.27;90.08;43286.13;5071863;28;20024;-73
2024/03/31 08:48:11;;;;;;;27.20;15.60;;;;;;;-146.27;89.78;43256.28;5090451;28;20685;-74
2024/03/31 08:50:38;;;;;;;25.90;16.23;;;;;;;-146.27;89.65;43240.38;5090554;28;20059;-73
2024/03/31 08:53:04;;;;;;;26.90;15.50;;;;;;;-146.27;89.80;43244.34;5090471;28;20032;-74
2024/03/31 08:55:30;;;;;;;24.08;15.10;;;;;;;-146.27;90.18;43264.25;5077884;28;20034;-73
2024/03/31 08:57:55;;;;;;;27.65;16.20;;;;;;;-146.27;89.93;43228.44;5064905;28;20016;-73
2024/03/31 09:00:20;;;;;;;24.48;15.98;;;;;;;-146.27;89.92;43236.41;5090673;28;20074;-73
2024/03/31 09:02:47;;;;;;;25.35;14.77;;;;;;;-146.27;89.72;43226.44;5090292;28;20039;-74
2024/03/31 09:05:12;;;;;;;30.88;16.63;;;;;;;-146.27;90.04;43200.59;5090982;28;20043;-73
2024/03/31 09:07:39;;;;;;;29.30;16.58;;;;;;;-146.27;89.90;43256.28;5090164;28;20407;-72
2024/03/31 09:10:05;;;;;;;33.22;18.00;;;;;;;-146.27;90.25;43264.25;5059970;28;20444;-71
2024/03/31 09:12:31;;;;;;;31.15;18.35;;;;;;;-146.27;90.60;43232.41;5079402;28;20032;-72
2024/03/31 09:14:57;;;;;;;29.85;17.20;;;;;;;-146.27;90.80;43276.19;5090292;28;20030;-69
2024/03/31 09:17:22;;;;;;;30.65;18.00;;;;;;;-146.27;90.58;43188.66;5090409;28;20024;-70
2024/03/31 09:19:48;;;;;;;31.63;19.13;;;;;;;-146.27;90.94;43236.41;5084629;28;20101;-70
2024/03/31 09:22:14;;;;;;;32.53;20.00;;;;;;;-146.27;90.79;43246.34;5070999;28;20032;-71
2024/03/31 09:24:42;;;;;;;36.95;21.60;;;;;;;-146.27;91.00;43212.53;5076909;28;20047;-71
2024/03/31 09:27:07;;;;;;;36.40;22.90;;;;;;;-146.27;91.37;43200.59;5069769;28;20557;-72
2024/03/31 09:29:33;;;;;;;35.05;21.48;;;;;;;-146.27;91.22;43170.75;5081734;28;20031;-71
2024/03/31 09:32:12;;;;;;;33.70;21.95;;;;;;;-146.27;91.13;43158.81;5090084;28;20034;-70
2024/03/31 09:34:45;;;;;;;35.40;21.58;;;;;;;-146.27;90.86;43121.03;5088341;28;20055;-72
2024/03/31 09:37:10;;;;;;;32.47;21.90;;;;;;;-146.27;90.72;43117.06;5090014;28;20024;-70
2024/03/31 09:39:37;;;;;;;35.10;23.10;;;;;;;-146.27;90.40;43069.31;5089972;28;20158;-71
2024/03/31 09:42:03;;;;;;;35.33;23.45;;;;;;;-146.27;90.34;43073.28;5089244;28;20511;-71
2024/03/31 09:44:29;;;;;;;36.40;22.83;;;;;;;-146.27;90.55;43005.66;5089920;28;20115;-71
2024/03/31 09:46:55;;;;;;;33.78;22.13;;;;;;;-146.27;89.48;43013.63;5071606;28;20073;-69
2024/03/31 09:49:31;;;;;;;29.35;21.85;;;;;;;-146.27;88.71;42959.91;5068380;28;20134;-71
2024/03/31 09:51:59;;;;;;;31.42;21.83;;;;;;;-146.27;88.07;43073.28;5076126;28;20024;-71
2024/03/31 09:54:42;;;;;;;37.42;21.67;;;;;;;-146.27;87.69;42963.91;5088356;28;20027;-72
2024/03/31 09:57:10;;;;;;;33.45;21.90;;;;;;;-146.27;87.56;42971.84;5091726;28;20027;-71
2024/03/31 09:59:40;;;;;;;33.00;22.23;;;;;;;-146.27;87.81;43051.41;5093721;28;20480;-72
2024/03/31 10:02:08;;;;;;;35.00;22.35;;;;;;;-146.27;86.91;43005.66;5086289;28;20046;-70
2024/03/31 10:04:47;;;;;;;37.25;24.58;;;;;;;-146.27;86.85;42898.25;5073288;28;20052;-72
2024/03/31 10:07:13;;;;;;;34.90;21.90;;;;;;;-146.27;86.11;42918.16;5088027;28;20115;-70
2024/03/31 10:09:39;;;;;;;32.85;21.55;;;;;;;-146.27;85.30;43001.69;5091223;28;20032;-71
2024/03/31 10:12:07;;;;;;;33.28;22.90;;;;;;;-146.27;86.06;42991.75;5055364;28;20088;-73
2024/03/31 10:14:34;;;;;;;32.28;21.40;;;;;;;-146.27;85.74;42918.16;5073314;28;20111;-74
2024/03/31 10:17:00;;;;;;;31.42;21.63;;;;;;;-146.27;85.30;42880.34;5073433;28;20025;-75
2024/03/31 10:19:28;;;;;;;31.38;20.83;;;;;;;-146.27;84.77;42782.91;5073409;28;20025;-74
2024/03/31 10:21:56;;;;;;;27.33;19.95;;;;;;;-146.27;83.91;42749.09;5073217;28;20028;-74
2024/03/31 10:24:22;;;;;;;31.08;20.35;;;;;;;-146.27;82.88;42870.41;5073260;28;20119;-72
2024/03/31 10:26:48;;;;;;;30.05;19.77;;;;;;;-146.27;83.55;42794.84;5074637;28;20182;-71
2024/03/31 10:29:16;;;;;;;27.33;20.10;;;;;;;-146.27;83.90;42689.41;5087029;28;20033;-75
2024/03/31 10:31:41;;;;;;;28.88;17.80;;;;;;;-146.27;82.79;42711.31;5054906;28;20032;-74
2024/03/31 10:34:07;;;;;;;29.83;19.00;;;;;;;-146.27;82.68;42566.13;5072774;28;20496;-72
2024/03/31 10:36:33;;;;;;;22.42;16.50;;;;;;;-146.27;80.92;42572.09;5072903;28;20028;-73
2024/03/31 10:38:59;;;;;;;26.73;17.92;;;;;;;-146.27;78.53;42675.50;5072918;28;20475;-73
2024/03/31 10:41:25;;;;;;;23.90;16.58;;;;;;;-146.27;78.93;42607.88;5072902;28;20107;-74
2024/03/31 10:43:51;;;;;;;23.80;16.73;;;;;;;-146.27;77.90;42667.53;5096528;28;20050;-74
2024/03/31 10:46:18;;;;;;;20.77;15.85;;;;;;;-146.27;78.13;42663.56;5107539;28;20031;-73
2024/03/31 10:48:56;;;;;;;22.45;15.07;;;;;;;-146.27;78.34;42510.44;5101428;28;20027;-75
2024/03/31 10:51:26;;;;;;;24.00;15.98;;;;;;;-146.27;77.20;42589.97;5085779;28;20027;-74
2024/03/31 10:53:51;;;;;;;16.60;13.18;;;;;;;-146.27;76.33;42532.31;5092715;28;20118;-74
2024/03/31 10:56:25;;;;;;;20.98;12.30;;;;;;;-146.27;75.29;42562.13;5092744;28;20153;-74
2024/03/31 10:58:50;;;;;;;20.45;12.77;;;;;;;-146.27;74.21;42719.25;5092538;28;20365;-73
2024/03/31 11:01:17;;;;;;;23.35;12.95;;;;;;;-146.27;72.98;42806.75;5078030;28;20035;-73